createdAt,value
2024-04-19T00:01:12.834Z,0
2024-04-19T00:02:22.000Z,0
2024-04-19T00:03:45.221Z,0
2024-04-19T00:05:01.415Z,0
2024-04-19T00:06:17.609Z,0
2024-04-19T00:07:33.803Z,0
2024-04-19T00:08:49.997Z,0
2024-04-19T00:10:06.191Z,0
2024-04-19T00:11:22.384Z,0
2024-04-19T00:12:38.578Z,0
2024-04-19T00:13:54.771Z,0
2024-04-19T00:15:10.965Z,0
2024-04-19T00:16:27.159Z,0
2024-04-19T00:17:42.369Z,0
2024-04-19T00:18:58.563Z,0
2024-04-19T00:20:14.756Z,0
2024-04-19T00:21:30.950Z,0
2024-04-19T00:22:47.144Z,0
2024-04-19T00:24:03.337Z,0
2024-04-19T00:25:19.531Z,0
2024-04-19T00:26:29.000Z,0
2024-04-19T00:27:51.918Z,0
2024-04-19T00:29:08.111Z,0
2024-04-19T00:30:24.305Z,0
2024-04-19T00:31:40.499Z,0
2024-04-19T00:32:56.692Z,0
2024-04-19T00:34:11.903Z,0
2024-04-19T00:35:28.096Z,0
2024-04-19T00:36:44.289Z,0
2024-04-19T00:38:00.483Z,0
2024-04-19T00:39:16.677Z,0
2024-04-19T00:40:32.871Z,0
2024-04-19T00:41:49.065Z,0
2024-04-19T00:43:05.258Z,0
2024-04-19T00:44:21.452Z,0
2024-04-19T00:45:37.646Z,0
2024-04-19T00:46:53.839Z,0
2024-04-19T00:48:10.033Z,0
2024-04-19T00:49:26.228Z,0
2024-04-19T00:50:41.437Z,0
2024-04-19T00:51:57.631Z,0
2024-04-19T00:53:13.825Z,0
2024-04-19T00:54:30.018Z,0
2024-04-19T00:55:46.212Z,0
2024-04-19T00:57:02.405Z,0
2024-04-19T00:59:34.792Z,0
2024-04-19T01:00:50.986Z,0
2024-04-19T01:02:07.180Z,0
2024-04-19T01:03:23.374Z,0
2024-04-19T01:04:39.567Z,0
2024-04-19T01:05:55.761Z,0
2024-04-19T01:07:10.971Z,0
2024-04-19T01:08:27.164Z,0
2024-04-19T01:09:43.358Z,0
2024-04-19T01:10:59.805Z,0
2024-04-19T01:12:15.746Z,0
2024-04-19T01:13:31.940Z,0
2024-04-19T01:14:48.133Z,0
2024-04-19T01:16:04.327Z,0
2024-04-19T01:17:20.520Z,0
2024-04-19T01:18:36.714Z,0
2024-04-19T01:19:52.908Z,0
2024-04-19T01:21:09.101Z,0
2024-04-19T01:22:25.296Z,0
2024-04-19T01:24:56.699Z,0
2024-04-19T01:26:13.139Z,0
2024-04-19T01:27:29.087Z,0
2024-04-19T01:28:45.280Z,0
2024-04-19T01:30:01.474Z,0
2024-04-19T01:31:17.667Z,0
2024-04-19T01:32:33.861Z,0
2024-04-19T01:33:50.055Z,0
2024-04-19T01:35:06.248Z,0
2024-04-19T01:36:22.442Z,0
2024-04-19T01:37:38.635Z,0
2024-04-19T01:38:54.829Z,0
2024-04-19T01:40:10.040Z,0
2024-04-19T01:41:26.233Z,0
2024-04-19T01:42:42.426Z,0
2024-04-19T01:43:58.620Z,0
2024-04-19T01:45:14.814Z,0
2024-04-19T01:46:31.008Z,0
2024-04-19T01:47:47.202Z,0
2024-04-19T01:49:03.395Z,0
2024-04-19T01:50:19.589Z,0
2024-04-19T01:51:35.783Z,0
2024-04-19T01:52:51.976Z,0
2024-04-19T01:54:08.170Z,0
2024-04-19T01:55:24.364Z,0
2024-04-19T01:56:39.574Z,0
2024-04-19T01:57:55.768Z,0
2024-04-19T01:59:11.962Z,0
2024-04-19T02:00:28.155Z,0
2024-04-19T02:01:44.349Z,0
2024-04-19T02:03:00.542Z,0
2024-04-19T02:04:16.736Z,0
2024-04-19T02:05:32.929Z,0
2024-04-19T02:08:05.316Z,0
2024-04-19T02:09:21.510Z,0
2024-04-19T02:10:37.704Z,0
2024-04-19T02:11:53.898Z,0
2024-04-19T02:13:09.108Z,0
2024-04-19T02:14:25.301Z,0
2024-04-19T02:15:41.495Z,0
2024-04-19T02:16:57.688Z,0
2024-04-19T02:18:13.883Z,0
2024-04-19T02:19:30.077Z,0
2024-04-19T02:20:46.270Z,0
2024-04-19T02:22:02.464Z,0
2024-04-19T02:23:18.657Z,0
2024-04-19T02:24:34.851Z,0
2024-04-19T02:25:51.044Z,0
2024-04-19T02:27:07.238Z,0
2024-04-19T02:28:23.433Z,0
2024-04-19T02:29:39.626Z,0
2024-04-19T02:30:54.837Z,0
2024-04-19T02:32:11.030Z,0
2024-04-19T02:33:27.223Z,0
2024-04-19T02:34:43.417Z,0
2024-04-19T02:35:59.610Z,0
2024-04-19T02:37:15.804Z,0
2024-04-19T02:38:32.116Z,0
2024-04-19T02:39:48.309Z,0
2024-04-19T02:41:04.504Z,0
2024-04-19T02:42:20.697Z,0
2024-04-19T02:43:36.891Z,0
2024-04-19T02:44:53.085Z,0
2024-04-19T02:46:09.278Z,0
2024-04-19T02:47:24.488Z,0
2024-04-19T02:48:40.682Z,0
2024-04-19T02:49:56.875Z,0
2024-04-19T02:51:13.069Z,0
2024-04-19T02:52:29.263Z,0
2024-04-19T02:53:45.456Z,0
2024-04-19T02:55:01.650Z,0
2024-04-19T02:56:17.843Z,0
2024-04-19T02:57:34.037Z,0
2024-04-19T02:58:50.231Z,0
2024-04-19T03:00:06.424Z,0
2024-04-19T03:01:22.618Z,0
2024-04-19T03:02:38.812Z,0
2024-04-19T03:03:54.022Z,0
2024-04-19T03:05:10.215Z,0
2024-04-19T03:06:26.409Z,0
2024-04-19T03:07:42.602Z,0
2024-04-19T03:08:58.796Z,0
2024-04-19T03:10:14.989Z,0
2024-04-19T03:11:31.183Z,0
2024-04-19T03:12:47.376Z,0
2024-04-19T03:14:03.571Z,0
2024-04-19T03:15:19.764Z,0
2024-04-19T03:16:35.958Z,0
2024-04-19T03:17:52.152Z,0
2024-04-19T03:19:08.345Z,0
2024-04-19T03:20:23.555Z,0
2024-04-19T03:21:39.749Z,0
2024-04-19T03:22:55.942Z,0
2024-04-19T03:24:05.000Z,0
2024-04-19T03:25:28.330Z,0
2024-04-19T03:26:44.523Z,0
2024-04-19T03:28:00.717Z,0
2024-04-19T03:29:16.910Z,0
2024-04-19T03:30:33.104Z,0
2024-04-19T03:31:49.298Z,0
2024-04-19T03:32:58.000Z,0
2024-04-19T03:34:21.685Z,0
2024-04-19T03:35:37.879Z,0
2024-04-19T03:36:54.072Z,0
2024-04-19T03:38:09.282Z,0
2024-04-19T03:39:25.476Z,0
2024-04-19T03:40:41.669Z,0
2024-04-19T03:41:57.863Z,0
2024-04-19T03:43:14.056Z,0
2024-04-19T03:44:30.250Z,0
2024-04-19T03:45:39.000Z,0
2024-04-19T03:47:02.638Z,0
2024-04-19T03:48:18.832Z,0
2024-04-19T03:49:35.025Z,0
2024-04-19T03:50:51.219Z,0
2024-04-19T03:52:07.413Z,0
2024-04-19T03:53:23.606Z,0
2024-04-19T03:54:38.817Z,0
2024-04-19T03:55:55.010Z,0
2024-04-19T03:57:11.203Z,0
2024-04-19T03:58:20.000Z,0
2024-04-19T03:59:43.590Z,0
2024-04-19T04:00:59.784Z,0
2024-04-19T04:02:15.978Z,4
2024-04-19T04:03:32.171Z,4
2024-04-19T04:04:48.365Z,0
2024-04-19T04:06:04.559Z,4
2024-04-19T04:07:20.752Z,4
2024-04-19T04:08:36.946Z,4
2024-04-19T04:09:53.139Z,8
2024-04-19T04:11:08.349Z,4
2024-04-19T04:12:24.543Z,8
2024-04-19T04:13:40.737Z,12
2024-04-19T04:14:56.930Z,12
2024-04-19T04:16:12.145Z,16
2024-04-19T04:17:28.339Z,16
2024-04-19T04:18:44.533Z,16
2024-04-19T04:20:00.726Z,20
2024-04-19T04:21:16.920Z,20
2024-04-19T04:22:33.113Z,20
2024-04-19T04:23:49.307Z,24
2024-04-19T04:25:05.501Z,24
2024-04-19T04:26:21.695Z,28
2024-04-19T04:27:37.888Z,32
2024-04-19T04:28:54.082Z,36
2024-04-19T04:30:10.275Z,36
2024-04-19T04:31:26.469Z,48
2024-04-19T04:32:41.680Z,48
2024-04-19T04:33:57.873Z,52
2024-04-19T04:35:14.066Z,56
2024-04-19T04:36:30.260Z,60
2024-04-19T04:37:46.454Z,60
2024-04-19T04:39:02.647Z,64
2024-04-19T04:40:18.841Z,76
2024-04-19T04:41:35.035Z,92
2024-04-19T04:42:51.229Z,120
2024-04-19T04:44:07.423Z,132
2024-04-19T04:45:23.617Z,148
2024-04-19T04:46:39.810Z,160
2024-04-19T04:47:56.004Z,176
2024-04-19T04:49:11.214Z,196
2024-04-19T04:50:27.407Z,212
2024-04-19T04:51:43.601Z,232
2024-04-19T04:52:59.795Z,220
2024-04-19T04:54:15.988Z,188
2024-04-19T04:55:32.182Z,204
2024-04-19T04:56:48.376Z,224
2024-04-19T04:58:04.569Z,240
2024-04-19T04:59:17.811Z,240
2024-04-19T05:00:36.957Z,240
2024-04-19T05:01:53.150Z,248
2024-04-19T05:03:09.344Z,288
2024-04-19T05:04:25.538Z,316
2024-04-19T05:05:40.748Z,344
2024-04-19T05:06:56.941Z,368
2024-04-19T05:08:13.135Z,380
2024-04-19T05:09:29.329Z,408
2024-04-19T05:10:45.522Z,440
2024-04-19T05:12:01.716Z,460
2024-04-19T05:13:17.909Z,488
2024-04-19T05:14:34.103Z,508
2024-04-19T05:15:50.298Z,512
2024-04-19T05:17:06.491Z,500
2024-04-19T05:18:22.685Z,536
2024-04-19T05:19:38.879Z,556
2024-04-19T05:20:55.072Z,596
2024-04-19T05:22:10.282Z,608
2024-04-19T05:23:26.476Z,648
2024-04-19T05:24:42.670Z,612
2024-04-19T05:25:58.863Z,624
2024-04-19T05:27:15.057Z,620
2024-04-19T05:28:31.251Z,620
2024-04-19T05:29:47.445Z,624
2024-04-19T05:31:03.638Z,640
2024-04-19T05:32:19.832Z,676
2024-04-19T05:33:36.026Z,704
2024-04-19T05:34:52.220Z,740
2024-04-19T05:36:08.413Z,848
2024-04-19T05:37:24.607Z,948
2024-04-19T05:38:39.818Z,1076
2024-04-19T05:39:56.011Z,1168
2024-04-19T05:41:12.204Z,1136
2024-04-19T05:42:28.398Z,1084
2024-04-19T05:43:44.592Z,1104
2024-04-19T05:45:00.786Z,1224
2024-04-19T05:46:16.979Z,1280
2024-04-19T05:47:33.173Z,1328
2024-04-19T05:48:49.368Z,1284
2024-04-19T05:50:05.562Z,1280
2024-04-19T05:51:21.755Z,1268
2024-04-19T05:52:37.949Z,1336
2024-04-19T05:53:54.143Z,1484
2024-04-19T05:55:09.352Z,1508
2024-04-19T05:56:25.546Z,1480
2024-04-19T05:57:41.740Z,1444
2024-04-19T05:58:57.933Z,1440
2024-04-19T06:00:14.127Z,1452
2024-04-19T06:01:30.321Z,1428
2024-04-19T06:02:46.514Z,1512
2024-04-19T06:04:02.708Z,1620
2024-04-19T06:05:18.902Z,1708
2024-04-19T06:06:35.095Z,1648
2024-04-19T06:07:51.289Z,1668
2024-04-19T06:09:07.483Z,1792
2024-04-19T06:10:23.676Z,1720
2024-04-19T06:11:38.887Z,1564
2024-04-19T06:12:55.080Z,1512
2024-04-19T06:14:11.274Z,1560
2024-04-19T06:15:27.467Z,1552
2024-04-19T06:16:43.661Z,1544
2024-04-19T06:17:59.855Z,1692
2024-04-19T06:19:16.048Z,2124
2024-04-19T06:20:32.242Z,2400
2024-04-19T06:21:48.437Z,2564
2024-04-19T06:23:04.630Z,2500
2024-04-19T06:24:20.824Z,2592
2024-04-19T06:25:37.018Z,2476
2024-04-19T06:26:53.211Z,2392
2024-04-19T06:28:08.421Z,2244
2024-04-19T06:29:24.615Z,2064
2024-04-19T06:30:40.809Z,1812
2024-04-19T06:31:57.002Z,1728
2024-04-19T06:33:13.196Z,1840
2024-04-19T06:34:29.636Z,2288
2024-04-19T06:35:38.000Z,2792
2024-04-19T06:37:01.777Z,3052
2024-04-19T06:38:18.220Z,3060
2024-04-19T06:39:34.164Z,3064
2024-04-19T06:40:50.358Z,3144
2024-04-19T06:42:06.551Z,3284
2024-04-19T06:43:22.745Z,3244
2024-04-19T06:44:37.956Z,3424
2024-04-19T06:45:54.149Z,3208
2024-04-19T06:47:10.342Z,2932
2024-04-19T06:48:26.536Z,2960
2024-04-19T06:49:42.730Z,2844
2024-04-19T06:50:58.923Z,3288
2024-04-19T06:52:15.117Z,3664
2024-04-19T06:53:31.311Z,4160
2024-04-19T06:54:47.505Z,4112
2024-04-19T06:56:03.699Z,4140
2024-04-19T06:57:19.892Z,4032
2024-04-19T06:58:36.086Z,4000
2024-04-19T06:59:52.279Z,4200
2024-04-19T07:01:07.489Z,4176
2024-04-19T07:02:23.931Z,4184
2024-04-19T07:03:40.120Z,5028
2024-04-19T07:04:56.070Z,5152
2024-04-19T07:06:12.264Z,4580
2024-04-19T07:07:28.457Z,3756
2024-04-19T07:08:44.651Z,4048
2024-04-19T07:10:00.845Z,4516
2024-04-19T07:11:17.039Z,4668
2024-04-19T07:12:33.232Z,4804
2024-04-19T07:13:49.426Z,4820
2024-04-19T07:15:05.619Z,5104
2024-04-19T07:16:21.813Z,5688
2024-04-19T07:17:37.023Z,5856
2024-04-19T07:18:53.469Z,5436
2024-04-19T07:20:09.409Z,5220
2024-04-19T07:21:25.849Z,5136
2024-04-19T07:22:41.800Z,5684
2024-04-19T07:23:57.994Z,5084
2024-04-19T07:25:14.189Z,4704
2024-04-19T07:26:30.634Z,4792
2024-04-19T07:27:46.579Z,4844
2024-04-19T07:29:02.774Z,5464
2024-04-19T07:30:18.968Z,5832
2024-04-19T07:31:35.163Z,5500
2024-04-19T07:32:51.358Z,4548
2024-04-19T07:34:06.569Z,3648
2024-04-19T07:35:22.764Z,3208
2024-04-19T07:36:38.958Z,3296
2024-04-19T07:37:55.153Z,3840
2024-04-19T07:39:11.349Z,3796
2024-04-19T07:40:27.545Z,4000
2024-04-19T07:41:43.739Z,3756
2024-04-19T07:42:59.934Z,4324
2024-04-19T07:44:16.128Z,4244
2024-04-19T07:45:32.324Z,3376
2024-04-19T07:46:48.519Z,3368
2024-04-19T07:48:04.715Z,3568
2024-04-19T07:49:20.910Z,3744
2024-04-19T07:50:36.122Z,4272
2024-04-19T07:51:52.564Z,4456
2024-04-19T07:53:08.513Z,6008
2024-04-19T07:54:24.708Z,6132
2024-04-19T07:55:40.904Z,5228
2024-04-19T07:56:57.099Z,4736
2024-04-19T07:58:13.295Z,3492
2024-04-19T07:59:29.491Z,3076
2024-04-19T08:00:38.000Z,2916
2024-04-19T08:02:01.882Z,3120
2024-04-19T08:03:18.078Z,3284
2024-04-19T08:04:34.273Z,4344
2024-04-19T08:05:50.469Z,4108
2024-04-19T08:07:05.680Z,4484
2024-04-19T08:08:15.000Z,5240
2024-04-19T08:09:38.071Z,7220
2024-04-19T08:10:54.267Z,7924
2024-04-19T08:12:10.462Z,7052
2024-04-19T08:13:26.658Z,5132
2024-04-19T08:14:42.854Z,4652
2024-04-19T08:15:59.050Z,4388
2024-04-19T08:17:15.245Z,4964
2024-04-19T08:18:31.441Z,4264
2024-04-19T08:19:47.636Z,4640
2024-04-19T08:21:03.832Z,4572
2024-04-19T08:22:20.028Z,4188
2024-04-19T08:23:35.239Z,3996
2024-04-19T08:24:51.434Z,4460
2024-04-19T08:26:07.630Z,4472
2024-04-19T08:27:23.825Z,3144
2024-04-19T08:28:40.021Z,3000
2024-04-19T08:29:56.217Z,3184
2024-04-19T08:31:11.434Z,4404
2024-04-19T08:32:27.628Z,4916
2024-04-19T08:33:43.824Z,3624
2024-04-19T08:35:00.019Z,3372
2024-04-19T08:36:16.215Z,3688
2024-04-19T08:37:32.410Z,4032
2024-04-19T08:38:48.606Z,3612
2024-04-19T08:40:04.802Z,4136
2024-04-19T08:41:20.998Z,3696
2024-04-19T08:42:37.193Z,5796
2024-04-19T08:43:53.389Z,4652
2024-04-19T08:45:09.584Z,3436
2024-04-19T08:46:25.780Z,2988
2024-04-19T08:47:34.000Z,3156
2024-04-19T08:48:57.187Z,4164
2024-04-19T08:50:06.000Z,5500
2024-04-19T08:51:29.579Z,6912
2024-04-19T08:52:45.774Z,9292
2024-04-19T08:54:01.970Z,10048
2024-04-19T08:55:18.165Z,12156
2024-04-19T08:56:34.361Z,9720
2024-04-19T08:57:50.556Z,6524
2024-04-19T08:59:06.752Z,4832
2024-04-19T09:00:22.948Z,7320
2024-04-19T09:01:39.144Z,7388
2024-04-19T09:02:55.339Z,7968
2024-04-19T09:04:10.551Z,9216
2024-04-19T09:05:26.745Z,6740
2024-04-19T09:06:42.941Z,5364
2024-04-19T09:07:59.137Z,4692
2024-04-19T09:10:31.528Z,8376
2024-04-19T09:11:47.724Z,10824
2024-04-19T09:13:03.919Z,8760
2024-04-19T09:14:20.115Z,10452
2024-04-19T09:15:36.310Z,7812
2024-04-19T09:16:52.506Z,10996
2024-04-19T09:18:08.702Z,13768
2024-04-19T09:19:24.898Z,11692
2024-04-19T09:20:40.109Z,12180
2024-04-19T09:21:56.305Z,12556
2024-04-19T09:23:12.500Z,11608
2024-04-19T09:24:28.696Z,8328
2024-04-19T09:25:44.891Z,10320
2024-04-19T09:27:01.087Z,6208
2024-04-19T09:28:17.282Z,7508
2024-04-19T09:29:33.478Z,5644
2024-04-19T09:30:49.673Z,7404
2024-04-19T09:32:05.869Z,7676
2024-04-19T09:33:22.308Z,7116
2024-04-19T09:34:38.260Z,3264
2024-04-19T09:35:54.456Z,2620
2024-04-19T09:37:09.667Z,2384
2024-04-19T09:38:25.862Z,2640
2024-04-19T09:39:42.058Z,4164
2024-04-19T09:40:58.253Z,10296
2024-04-19T09:42:14.449Z,11020
2024-04-19T09:43:30.644Z,8980
2024-04-19T09:44:46.840Z,6984
2024-04-19T09:45:56.000Z,6320
2024-04-19T09:47:19.231Z,7920
2024-04-19T09:48:35.426Z,9540
2024-04-19T09:49:51.622Z,8716
2024-04-19T09:51:07.817Z,7916
2024-04-19T09:52:24.013Z,6468
2024-04-19T09:53:39.224Z,6180
2024-04-19T09:54:55.668Z,7364
2024-04-19T09:56:11.615Z,5532
2024-04-19T09:57:27.811Z,4004
2024-04-19T09:58:44.007Z,4144
2024-04-19T10:00:00.202Z,2456
2024-04-19T10:01:16.398Z,3832
2024-04-19T10:02:32.593Z,3252
2024-04-19T10:03:48.789Z,4324
2024-04-19T10:05:04.984Z,7284
2024-04-19T10:06:21.180Z,6852
2024-04-19T10:07:37.376Z,10376
2024-04-19T10:08:53.571Z,8472
2024-04-19T10:10:01.000Z,8152
2024-04-19T10:11:24.977Z,7676
2024-04-19T10:12:41.173Z,6080
2024-04-19T10:13:57.368Z,7516
2024-04-19T10:15:13.564Z,10168
2024-04-19T10:16:29.759Z,8804
2024-04-19T10:17:45.955Z,8756
2024-04-19T10:19:02.150Z,8884
2024-04-19T10:20:18.346Z,10236
2024-04-19T10:21:34.541Z,7612
2024-04-19T10:22:50.737Z,11708
2024-04-19T10:24:06.932Z,9644
2024-04-19T10:25:23.128Z,8128
2024-04-19T10:26:38.339Z,14628
2024-04-19T10:27:54.535Z,11468
2024-04-19T10:29:10.731Z,11952
2024-04-19T10:30:26.926Z,13344
2024-04-19T10:31:43.122Z,13828
2024-04-19T10:32:59.317Z,10656
2024-04-19T10:34:15.512Z,10156
2024-04-19T10:35:31.708Z,11860
2024-04-19T10:36:47.904Z,8552
2024-04-19T10:38:04.099Z,7824
2024-04-19T10:39:20.295Z,8948
2024-04-19T10:40:36.490Z,12376
2024-04-19T10:41:52.686Z,9040
2024-04-19T10:43:07.897Z,8108
2024-04-19T10:44:24.092Z,6836
2024-04-19T10:45:40.288Z,8076
2024-04-19T10:46:56.483Z,9608
2024-04-19T10:48:12.679Z,12276
2024-04-19T10:49:28.874Z,10696
2024-04-19T10:50:45.070Z,8188
2024-04-19T10:52:01.265Z,10272
2024-04-19T10:53:17.461Z,14508
2024-04-19T10:54:33.656Z,18144
2024-04-19T10:55:49.852Z,17152
2024-04-19T10:57:06.047Z,15828
2024-04-19T10:58:22.243Z,13744
2024-04-19T10:59:37.454Z,10820
2024-04-19T11:00:53.650Z,10008
2024-04-19T11:02:09.845Z,9088
2024-04-19T11:03:26.289Z,8568
2024-04-19T11:04:42.236Z,8548
2024-04-19T11:05:58.432Z,8812
2024-04-19T11:07:14.627Z,9504
2024-04-19T11:08:30.823Z,11764
2024-04-19T11:09:47.018Z,13936
2024-04-19T11:11:03.214Z,14428
2024-04-19T11:12:19.409Z,10976
2024-04-19T11:13:35.605Z,8092
2024-04-19T11:14:51.800Z,6276
2024-04-19T11:16:07.012Z,5564
2024-04-19T11:17:23.206Z,5020
2024-04-19T11:18:39.402Z,4456
2024-04-19T11:19:55.597Z,4676
2024-04-19T11:21:11.793Z,4648
2024-04-19T11:22:27.988Z,4556
2024-04-19T11:23:44.184Z,5156
2024-04-19T11:25:00.379Z,7272
2024-04-19T11:26:16.575Z,8892
2024-04-19T11:27:32.770Z,9100
2024-04-19T11:28:48.966Z,8848
2024-04-19T11:30:05.161Z,9164
2024-04-19T11:31:21.357Z,9380
2024-04-19T11:32:36.568Z,9980
2024-04-19T11:33:52.764Z,9928
2024-04-19T11:35:08.960Z,10332
2024-04-19T11:36:25.155Z,11052
2024-04-19T11:37:41.351Z,11504
2024-04-19T11:38:57.547Z,12192
2024-04-19T11:40:13.742Z,12628
2024-04-19T11:41:29.938Z,12916
2024-04-19T11:42:46.133Z,11896
2024-04-19T11:44:02.329Z,10540
2024-04-19T11:45:18.524Z,9748
2024-04-19T11:46:34.720Z,9496
2024-04-19T11:47:50.915Z,8980
2024-04-19T11:49:06.127Z,8224
2024-04-19T11:50:22.322Z,8612
2024-04-19T11:51:38.518Z,7660
2024-04-19T11:52:54.713Z,6672
2024-04-19T11:54:10.909Z,7688
2024-04-19T11:55:27.104Z,8324
2024-04-19T11:56:43.300Z,6016
2024-04-19T11:57:59.495Z,5900
2024-04-19T11:59:15.691Z,4824
2024-04-19T12:00:31.886Z,4108
2024-04-19T12:01:48.082Z,4580
2024-04-19T12:03:04.277Z,5620
2024-04-19T12:04:20.473Z,8188
2024-04-19T12:05:29.000Z,9428
2024-04-19T12:06:51.881Z,10076
2024-04-19T12:08:08.076Z,9664
2024-04-19T12:09:24.272Z,8548
2024-04-19T12:10:40.467Z,6940
2024-04-19T12:11:56.663Z,9540
2024-04-19T12:13:12.858Z,9776
2024-04-19T12:14:29.054Z,9368
2024-04-19T12:15:45.249Z,9732
2024-04-19T12:17:01.445Z,8540
2024-04-19T12:18:17.641Z,7048
2024-04-19T12:19:33.837Z,7456
2024-04-19T12:20:50.032Z,7668
2024-04-19T12:22:06.228Z,6944
2024-04-19T12:23:21.439Z,7176
2024-04-19T12:24:30.000Z,5604
2024-04-19T12:25:53.830Z,3692
2024-04-19T12:27:10.027Z,3580
2024-04-19T12:28:26.222Z,4124
2024-04-19T12:29:42.418Z,2560
2024-04-19T12:30:58.613Z,2252
2024-04-19T12:32:14.809Z,2440
2024-04-19T12:33:31.004Z,3332
2024-04-19T12:34:47.200Z,2876
2024-04-19T12:36:03.395Z,1636
2024-04-19T12:37:19.591Z,1888
2024-04-19T12:38:35.787Z,1848
2024-04-19T12:39:51.000Z,2476
2024-04-19T12:41:07.195Z,2348
2024-04-19T12:42:23.391Z,2504
2024-04-19T12:43:39.586Z,2980
2024-04-19T12:44:56.027Z,2448
2024-04-19T12:46:11.244Z,2512
2024-04-19T12:47:27.195Z,3432
2024-04-19T12:48:43.390Z,4512
2024-04-19T12:49:59.586Z,3300
2024-04-19T12:51:15.782Z,2860
2024-04-19T12:52:31.978Z,2648
2024-04-19T12:53:48.173Z,2676
2024-04-19T12:55:04.369Z,2572
2024-04-19T12:56:20.564Z,3016
2024-04-19T12:57:36.760Z,2676
2024-04-19T12:58:52.955Z,2416
2024-04-19T13:00:09.152Z,2344
2024-04-19T13:01:25.348Z,2252
2024-04-19T13:02:40.560Z,1976
2024-04-19T13:03:56.756Z,1840
2024-04-19T13:05:12.952Z,1732
2024-04-19T13:06:29.147Z,1688
2024-04-19T13:07:45.343Z,1936
2024-04-19T13:09:01.538Z,1660
2024-04-19T13:10:17.734Z,1248
2024-04-19T13:11:33.930Z,920
2024-04-19T13:12:50.126Z,880
2024-04-19T13:14:06.321Z,1004
2024-04-19T13:15:22.517Z,1264
2024-04-19T13:16:38.712Z,1236
2024-04-19T13:17:54.908Z,1576
2024-04-19T13:19:11.103Z,2564
2024-04-19T13:20:26.315Z,4952
2024-04-19T13:21:42.511Z,7596
2024-04-19T13:22:58.707Z,9936
2024-04-19T13:24:15.029Z,10896
2024-04-19T13:25:31.225Z,10112
2024-04-19T13:26:47.420Z,6836
2024-04-19T13:28:03.616Z,7088
2024-04-19T13:29:19.811Z,4356
2024-04-19T13:30:36.007Z,4508
2024-04-19T13:31:52.202Z,5420
2024-04-19T13:33:08.398Z,5652
2024-04-19T13:34:24.594Z,5592
2024-04-19T13:35:40.790Z,6500
2024-04-19T13:36:56.001Z,7816
2024-04-19T13:38:12.197Z,9544
2024-04-19T13:39:28.392Z,9700
2024-04-19T13:40:44.589Z,9376
2024-04-19T13:42:00.785Z,10660
2024-04-19T13:43:16.981Z,12112
2024-04-19T13:44:33.176Z,13640
2024-04-19T13:45:49.372Z,13036
2024-04-19T13:47:05.567Z,9856
2024-04-19T13:48:21.763Z,7784
2024-04-19T13:49:37.958Z,7032
2024-04-19T13:50:54.154Z,7700
2024-04-19T13:52:10.350Z,7344
2024-04-19T13:53:26.546Z,8148
2024-04-19T13:54:41.757Z,8860
2024-04-19T13:55:57.953Z,10092
2024-04-19T13:57:14.148Z,13480
2024-04-19T13:58:30.344Z,17824
2024-04-19T13:59:46.539Z,16016
2024-04-19T14:01:02.991Z,5828
2024-04-19T14:02:18.932Z,1264
2024-04-19T14:03:35.128Z,1388
2024-04-19T14:04:51.323Z,1764
2024-04-19T14:06:07.520Z,2032
2024-04-19T14:07:23.715Z,2588
2024-04-19T14:08:39.912Z,1304
2024-04-19T14:09:56.108Z,1784
2024-04-19T14:11:11.321Z,1484
2024-04-19T14:12:27.516Z,1300
2024-04-19T14:13:43.713Z,1448
2024-04-19T14:15:00.154Z,1640
2024-04-19T14:16:16.104Z,1556
2024-04-19T14:17:32.299Z,1472
2024-04-19T14:18:48.495Z,1460
2024-04-19T14:20:04.691Z,1468
2024-04-19T14:21:20.887Z,2632
2024-04-19T14:22:37.082Z,4276
2024-04-19T14:23:53.278Z,6200
2024-04-19T14:25:09.473Z,7352
2024-04-19T14:26:25.669Z,6708
2024-04-19T14:27:40.880Z,6384
2024-04-19T14:28:57.077Z,8732
2024-04-19T14:30:13.272Z,10432
2024-04-19T14:31:29.469Z,11716
2024-04-19T14:32:45.916Z,11572
2024-04-19T14:34:01.860Z,11340
2024-04-19T14:35:18.055Z,10488
2024-04-19T14:36:34.252Z,8372
2024-04-19T14:37:50.696Z,6932
2024-04-19T14:39:06.644Z,6152
2024-04-19T14:40:22.841Z,7204
2024-04-19T14:41:39.037Z,9764
2024-04-19T14:42:55.232Z,9300
2024-04-19T14:44:10.445Z,8232
2024-04-19T14:45:26.640Z,8244
2024-04-19T14:46:42.836Z,7888
2024-04-19T14:47:59.032Z,8176
2024-04-19T14:49:15.228Z,8664
2024-04-19T14:50:31.425Z,9156
2024-04-19T14:51:47.621Z,10392
2024-04-19T14:53:03.817Z,10192
2024-04-19T14:54:20.013Z,8872
2024-04-19T14:55:36.209Z,6468
2024-04-19T14:56:52.405Z,6048
2024-04-19T14:58:08.601Z,6036
2024-04-19T14:59:24.797Z,4364
2024-04-19T15:00:40.009Z,2836
2024-04-19T15:01:56.206Z,1852
2024-04-19T15:03:12.401Z,1656
2024-04-19T15:05:44.793Z,2344
2024-04-19T15:07:00.989Z,3240
2024-04-19T15:08:17.429Z,3396
2024-04-19T15:09:33.381Z,3656
2024-04-19T15:10:49.576Z,3092
2024-04-19T15:12:05.773Z,4004
2024-04-19T15:13:21.968Z,3800
2024-04-19T15:14:38.164Z,3076
2024-04-19T15:15:54.360Z,2556
2024-04-19T15:17:09.825Z,2676
2024-04-19T15:18:25.769Z,2932
2024-04-19T15:19:41.965Z,2968
2024-04-19T15:20:58.161Z,5200
2024-04-19T15:22:14.357Z,9712
2024-04-19T15:23:30.553Z,11752
2024-04-19T15:24:46.749Z,12764
2024-04-19T15:26:02.945Z,10384
2024-04-19T15:27:19.384Z,11052
2024-04-19T15:28:35.337Z,11572
2024-04-19T15:29:51.533Z,9748
2024-04-19T15:31:00.000Z,8260
2024-04-19T15:32:23.924Z,9152
2024-04-19T15:33:39.388Z,9952
2024-04-19T15:34:55.332Z,9084
2024-04-19T15:36:11.528Z,7944
2024-04-19T15:37:27.724Z,7080
2024-04-19T15:38:43.920Z,6292
2024-04-19T15:40:00.116Z,6064
2024-04-19T15:41:16.312Z,5204
2024-04-19T15:42:32.508Z,4740
2024-04-19T15:43:48.703Z,4696
2024-04-19T15:45:04.900Z,4920
2024-04-19T15:46:14.000Z,5640
2024-04-19T15:47:37.292Z,6436
2024-04-19T15:48:53.487Z,6708
2024-04-19T15:50:08.700Z,8396
2024-04-19T15:51:24.895Z,9316
2024-04-19T15:52:41.350Z,7512
2024-04-19T15:53:57.287Z,5628
2024-04-19T15:55:13.483Z,4372
2024-04-19T15:56:29.680Z,4084
2024-04-19T15:57:45.876Z,4264
2024-04-19T15:59:02.071Z,5900
2024-04-19T16:00:18.267Z,5896
2024-04-19T16:01:34.463Z,4380
2024-04-19T16:02:50.659Z,2968
2024-04-19T16:04:06.855Z,2760
2024-04-19T16:05:23.300Z,2736
2024-04-19T16:06:38.263Z,2756
2024-04-19T16:07:54.459Z,2780
2024-04-19T16:09:10.654Z,2736
2024-04-19T16:10:26.850Z,2724
2024-04-19T16:11:43.047Z,2708
2024-04-19T16:12:59.243Z,2776
2024-04-19T16:14:15.438Z,3116
2024-04-19T16:15:31.635Z,5332
2024-04-19T16:16:47.831Z,6852
2024-04-19T16:18:04.028Z,6024
2024-04-19T16:19:20.223Z,6580
2024-04-19T16:20:36.419Z,5800
2024-04-19T16:21:52.616Z,4792
2024-04-19T16:23:07.829Z,3580
2024-04-19T16:24:24.024Z,2476
2024-04-19T16:25:40.220Z,2084
2024-04-19T16:26:56.416Z,1476
2024-04-19T16:28:12.612Z,1256
2024-04-19T16:29:28.807Z,1636
2024-04-19T16:30:45.003Z,1944
2024-04-19T16:32:01.198Z,1944
2024-04-19T16:33:17.394Z,2028
2024-04-19T16:34:33.835Z,2128
2024-04-19T16:35:49.787Z,2344
2024-04-19T16:37:05.982Z,1460
2024-04-19T16:38:22.178Z,1504
2024-04-19T16:39:30.000Z,1500
2024-04-19T16:40:53.585Z,1372
2024-04-19T16:42:09.781Z,1988
2024-04-19T16:43:25.977Z,2108
2024-04-19T16:44:42.172Z,3020
2024-04-19T16:45:58.368Z,5128
2024-04-19T16:47:14.563Z,3512
2024-04-19T16:48:30.760Z,3852
2024-04-19T16:49:46.956Z,3340
2024-04-19T16:51:03.154Z,3172
2024-04-19T16:52:19.349Z,2444
2024-04-19T16:53:35.545Z,2324
2024-04-19T16:54:51.738Z,2236
2024-04-19T16:56:06.949Z,2200
2024-04-19T16:57:23.142Z,2196
2024-04-19T16:58:39.335Z,2176
2024-04-19T16:59:55.529Z,2168
2024-04-19T17:01:10.745Z,2152
2024-04-19T17:02:26.938Z,2140
2024-04-19T17:03:43.132Z,2004
2024-04-19T17:04:59.326Z,2432
2024-04-19T17:06:15.519Z,3540
2024-04-19T17:07:31.713Z,3484
2024-04-19T17:08:47.907Z,2848
2024-04-19T17:10:04.100Z,2940
2024-04-19T17:11:20.294Z,3220
2024-04-19T17:12:29.000Z,2976
2024-04-19T17:13:52.682Z,2640
2024-04-19T17:15:08.876Z,3164
2024-04-19T17:16:25.070Z,3876
2024-04-19T17:17:40.279Z,4024
2024-04-19T17:18:56.473Z,2172
2024-04-19T17:20:12.667Z,1844
2024-04-19T17:21:28.860Z,1780
2024-04-19T17:22:45.054Z,1772
2024-04-19T17:24:01.503Z,1732
2024-04-19T17:25:17.441Z,1692